sensor_id;sensor_type;location;lat;lon;timestamp;P1;durP1;ratioP1;P2;durP2;ratioP2
77581;SDS011;66726;52.388;9.986;2023-01-29T00:00:06;23.02;;;20.50;;
77581;SDS011;66726;52.388;9.986;2023-01-29T00:02:36;23.15;;;20.77;;
77581;SDS011;66726;52.388;9.986;2023-01-29T00:05:05;23.67;;;21.17;;
77581;SDS011;66726;52.388;9.986;2023-01-29T00:07:53;26.67;;;23.77;;
77581;SDS011;66726;52.388;9.986;2023-01-29T00:10:22;32.60;;;28.00;;
77581;SDS011;66726;52.388;9.986;2023-01-29T00:12:51;32.03;;;27.95;;
77581;SDS011;66726;52.388;9.986;2023-01-29T00:15:19;40.17;;;31.15;;
77581;SDS011;66726;52.388;9.986;2023-01-29T00:17:47;37.72;;;31.13;;
77581;SDS011;66726;52.388;9.986;2023-01-29T00:20:15;29.02;;;24.70;;
77581;SDS011;66726;52.388;9.986;2023-01-29T00:22:44;26.00;;;23.20;;
77581;SDS011;66726;52.388;9.986;2023-01-29T00:25:14;25.73;;;23.02;;
77581;SDS011;66726;52.388;9.986;2023-01-29T00:27:42;30.42;;;26.75;;
77581;SDS011;66726;52.388;9.986;2023-01-29T00:30:11;24.27;;;21.45;;
77581;SDS011;66726;52.388;9.986;2023-01-29T00:32:44;24.25;;;21.10;;
77581;SDS011;66726;52.388;9.986;2023-01-29T00:35:13;23.77;;;21.25;;
77581;SDS011;66726;52.388;9.986;2023-01-29T00:37:41;27.70;;;24.70;;
77581;SDS011;66726;52.388;9.986;2023-01-29T00:40:09;26.40;;;23.17;;
77581;SDS011;66726;52.388;9.986;2023-01-29T00:42:40;25.65;;;22.42;;
77581;SDS011;66726;52.388;9.986;2023-01-29T00:45:28;24.15;;;21.58;;
77581;SDS011;66726;52.388;9.986;2023-01-29T00:47:56;25.80;;;23.02;;
77581;SDS011;66726;52.388;9.986;2023-01-29T00:50:24;25.90;;;23.10;;
77581;SDS011;66726;52.388;9.986;2023-01-29T00:52:52;27.80;;;22.40;;
77581;SDS011;66726;52.388;9.986;2023-01-29T00:55:20;28.70;;;24.00;;
77581;SDS011;66726;52.388;9.986;2023-01-29T00:57:50;31.73;;;24.83;;
77581;SDS011;66726;52.388;9.986;2023-01-29T01:00:18;27.50;;;23.90;;
77581;SDS011;66726;52.388;9.986;2023-01-29T01:02:47;25.45;;;22.67;;
77581;SDS011;66726;52.388;9.986;2023-01-29T01:05:32;24.75;;;22.05;;
77581;SDS011;66726;52.388;9.986;2023-01-29T01:08:02;24.08;;;21.48;;
77581;SDS011;66726;52.388;9.986;2023-01-29T01:10:57;24.70;;;22.15;;
77581;SDS011;66726;52.388;9.986;2023-01-29T01:13:27;24.38;;;21.50;;
77581;SDS011;66726;52.388;9.986;2023-01-29T01:15:56;23.77;;;21.38;;
77581;SDS011;66726;52.388;9.986;2023-01-29T01:18:24;24.00;;;21.48;;
77581;SDS011;66726;52.388;9.986;2023-01-29T01:20:56;23.52;;;21.02;;
77581;SDS011;66726;52.388;9.986;2023-01-29T01:23:25;23.40;;;20.88;;
77581;SDS011;66726;52.388;9.986;2023-01-29T01:25:53;23.98;;;21.48;;
77581;SDS011;66726;52.388;9.986;2023-01-29T01:28:21;24.00;;;21.40;;
77581;SDS011;66726;52.388;9.986;2023-01-29T01:30:50;23.45;;;20.98;;
77581;SDS011;66726;52.388;9.986;2023-01-29T01:33:19;24.20;;;21.70;;
77581;SDS011;66726;52.388;9.986;2023-01-29T01:35:47;23.08;;;20.70;;
77581;SDS011;66726;52.388;9.986;2023-01-29T01:38:15;23.08;;;20.77;;
77581;SDS011;66726;52.388;9.986;2023-01-29T01:40:43;23.67;;;21.17;;
77581;SDS011;66726;52.388;9.986;2023-01-29T01:43:12;23.70;;;21.17;;
77581;SDS011;66726;52.388;9.986;2023-01-29T01:45:40;24.00;;;21.50;;
77581;SDS011;66726;52.388;9.986;2023-01-29T01:48:14;24.17;;;21.50;;
77581;SDS011;66726;52.388;9.986;2023-01-29T01:50:48;23.38;;;20.98;;
77581;SDS011;66726;52.388;9.986;2023-01-29T01:53:22;24.63;;;21.92;;
77581;SDS011;66726;52.388;9.986;2023-01-29T01:56:00;24.13;;;21.55;;
77581;SDS011;66726;52.388;9.986;2023-01-29T01:58:33;25.10;;;22.40;;
77581;SDS011;66726;52.388;9.986;2023-01-29T02:01:06;24.97;;;22.23;;
77581;SDS011;66726;52.388;9.986;2023-01-29T02:03:42;25.25;;;22.52;;
77581;SDS011;66726;52.388;9.986;2023-01-29T02:06:38;24.92;;;22.33;;
77581;SDS011;66726;52.388;9.986;2023-01-29T02:09:26;25.13;;;22.42;;
77581;SDS011;66726;52.388;9.986;2023-01-29T02:12:01;25.20;;;22.52;;
77581;SDS011;66726;52.388;9.986;2023-01-29T02:14:32;24.08;;;21.45;;
77581;SDS011;66726;52.388;9.986;2023-01-29T02:17:04;25.52;;;22.83;;
77581;SDS011;66726;52.388;9.986;2023-01-29T02:19:40;25.58;;;22.88;;
77581;SDS011;66726;52.388;9.986;2023-01-29T02:22:23;26.00;;;22.98;;
77581;SDS011;66726;52.388;9.986;2023-01-29T02:25:23;24.77;;;22.17;;
77581;SDS011;66726;52.388;9.986;2023-01-29T02:28:25;26.23;;;22.97;;
77581;SDS011;66726;52.388;9.986;2023-01-29T02:31:05;27.02;;;23.95;;
77581;SDS011;66726;52.388;9.986;2023-01-29T02:33:47;26.55;;;23.75;;
77581;SDS011;66726;52.388;9.986;2023-01-29T02:36:29;27.55;;;24.65;;
77581;SDS011;66726;52.388;9.986;2023-01-29T02:39:10;26.35;;;23.27;;
77581;SDS011;66726;52.388;9.986;2023-01-29T02:41:49;26.52;;;23.75;;
77581;SDS011;66726;52.388;9.986;2023-01-29T02:44:29;28.00;;;25.02;;
77581;SDS011;66726;52.388;9.986;2023-01-29T02:47:08;27.23;;;24.38;;
77581;SDS011;66726;52.388;9.986;2023-01-29T02:49:44;27.35;;;24.35;;
77581;SDS011;66726;52.388;9.986;2023-01-29T02:52:20;30.30;;;25.08;;
77581;SDS011;66726;52.388;9.986;2023-01-29T02:55:03;28.55;;;25.30;;
77581;SDS011;66726;52.388;9.986;2023-01-29T02:57:39;27.77;;;24.77;;
77581;SDS011;66726;52.388;9.986;2023-01-29T03:00:15;29.08;;;25.83;;
77581;SDS011;66726;52.388;9.986;2023-01-29T03:02:50;27.73;;;24.33;;
77581;SDS011;66726;52.388;9.986;2023-01-29T03:05:25;28.75;;;25.23;;
77581;SDS011;66726;52.388;9.986;2023-01-29T03:08:02;28.58;;;24.98;;
77581;SDS011;66726;52.388;9.986;2023-01-29T03:10:38;28.95;;;25.85;;
77581;SDS011;66726;52.388;9.986;2023-01-29T03:13:14;30.02;;;25.27;;
77581;SDS011;66726;52.388;9.986;2023-01-29T03:15:51;29.17;;;26.05;;
77581;SDS011;66726;52.388;9.986;2023-01-29T03:18:30;29.20;;;26.02;;
77581;SDS011;66726;52.388;9.986;2023-01-29T03:21:07;27.63;;;24.73;;
77581;SDS011;66726;52.388;9.986;2023-01-29T03:23:54;28.63;;;25.05;;
77581;SDS011;66726;52.388;9.986;2023-01-29T03:26:44;28.38;;;25.38;;
77581;SDS011;66726;52.388;9.986;2023-01-29T03:29:30;27.63;;;24.63;;
77581;SDS011;66726;52.388;9.986;2023-01-29T03:32:20;29.27;;;25.53;;
77581;SDS011;66726;52.388;9.986;2023-01-29T03:34:56;28.25;;;24.90;;
77581;SDS011;66726;52.388;9.986;2023-01-29T03:37:30;28.77;;;25.00;;
77581;SDS011;66726;52.388;9.986;2023-01-29T03:40:06;28.95;;;25.20;;
77581;SDS011;66726;52.388;9.986;2023-01-29T03:42:51;27.20;;;24.30;;
77581;SDS011;66726;52.388;9.986;2023-01-29T03:45:33;28.03;;;25.03;;
77581;SDS011;66726;52.388;9.986;2023-01-29T03:48:12;27.70;;;24.77;;
77581;SDS011;66726;52.388;9.986;2023-01-29T03:50:53;27.33;;;24.42;;
77581;SDS011;66726;52.388;9.986;2023-01-29T03:53:29;27.05;;;24.10;;
77581;SDS011;66726;52.388;9.986;2023-01-29T03:56:12;28.23;;;25.23;;
77581;SDS011;66726;52.388;9.986;2023-01-29T03:58:56;27.65;;;24.65;;
77581;SDS011;66726;52.388;9.986;2023-01-29T04:01:35;28.08;;;25.02;;
77581;SDS011;66726;52.388;9.986;2023-01-29T04:04:16;28.17;;;24.85;;
77581;SDS011;66726;52.388;9.986;2023-01-29T04:06:53;27.70;;;24.65;;
77581;SDS011;66726;52.388;9.986;2023-01-29T04:09:30;27.70;;;24.75;;
77581;SDS011;66726;52.388;9.986;2023-01-29T04:12:07;28.30;;;24.95;;
77581;SDS011;66726;52.388;9.986;2023-01-29T04:14:38;29.73;;;25.35;;
77581;SDS011;66726;52.388;9.986;2023-01-29T04:17:07;27.17;;;24.25;;
77581;SDS011;66726;52.388;9.986;2023-01-29T04:19:42;28.30;;;24.75;;
77581;SDS011;66726;52.388;9.986;2023-01-29T04:22:12;28.13;;;24.67;;
77581;SDS011;66726;52.388;9.986;2023-01-29T04:24:46;29.60;;;23.58;;
77581;SDS011;66726;52.388;9.986;2023-01-29T04:27:20;28.50;;;25.23;;
77581;SDS011;66726;52.388;9.986;2023-01-29T04:29:59;27.73;;;24.75;;
77581;SDS011;66726;52.388;9.986;2023-01-29T04:32:52;29.10;;;24.23;;
77581;SDS011;66726;52.388;9.986;2023-01-29T04:35:34;28.20;;;25.03;;
77581;SDS011;66726;52.388;9.986;2023-01-29T04:41:21;28.80;;;24.65;;
77581;SDS011;66726;52.388;9.986;2023-01-29T04:43:59;29.67;;;24.88;;
77581;SDS011;66726;52.388;9.986;2023-01-29T04:46:38;26.48;;;23.48;;
77581;SDS011;66726;52.388;9.986;2023-01-29T04:49:18;28.07;;;25.07;;
77581;SDS011;66726;52.388;9.986;2023-01-29T04:52:06;27.80;;;24.85;;
77581;SDS011;66726;52.388;9.986;2023-01-29T04:54:48;28.60;;;24.75;;
77581;SDS011;66726;52.388;9.986;2023-01-29T04:57:28;27.67;;;24.77;;
77581;SDS011;66726;52.388;9.986;2023-01-29T05:00:07;27.48;;;24.58;;
77581;SDS011;66726;52.388;9.986;2023-01-29T05:02:44;28.08;;;25.00;;
77581;SDS011;66726;52.388;9.986;2023-01-29T05:05:15;28.23;;;24.55;;
77581;SDS011;66726;52.388;9.986;2023-01-29T05:07:48;28.00;;;24.60;;
77581;SDS011;66726;52.388;9.986;2023-01-29T05:10:17;28.60;;;25.30;;
77581;SDS011;66726;52.388;9.986;2023-01-29T05:12:50;28.98;;;25.95;;
77581;SDS011;66726;52.388;9.986;2023-01-29T05:15:25;29.40;;;26.20;;
77581;SDS011;66726;52.388;9.986;2023-01-29T05:18:00;29.73;;;26.45;;
77581;SDS011;66726;52.388;9.986;2023-01-29T05:20:34;30.30;;;26.30;;
77581;SDS011;66726;52.388;9.986;2023-01-29T05:23:09;30.42;;;26.50;;
77581;SDS011;66726;52.388;9.986;2023-01-29T05:25:42;30.17;;;26.60;;
77581;SDS011;66726;52.388;9.986;2023-01-29T05:28:11;31.80;;;28.05;;
77581;SDS011;66726;52.388;9.986;2023-01-29T05:30:42;30.40;;;26.40;;
77581;SDS011;66726;52.388;9.986;2023-01-29T05:33:13;31.45;;;27.40;;
77581;SDS011;66726;52.388;9.986;2023-01-29T05:35:43;30.92;;;27.27;;
77581;SDS011;66726;52.388;9.986;2023-01-29T05:38:13;32.45;;;27.95;;
77581;SDS011;66726;52.388;9.986;2023-01-29T05:40:42;30.60;;;26.95;;
77581;SDS011;66726;52.388;9.986;2023-01-29T05:43:13;31.20;;;26.90;;
77581;SDS011;66726;52.388;9.986;2023-01-29T05:45:50;30.63;;;26.38;;
77581;SDS011;66726;52.388;9.986;2023-01-29T05:48:19;34.53;;;27.92;;
77581;SDS011;66726;52.388;9.986;2023-01-29T05:50:48;31.02;;;27.08;;
77581;SDS011;66726;52.388;9.986;2023-01-29T05:53:18;31.20;;;26.77;;
77581;SDS011;66726;52.388;9.986;2023-01-29T05:55:47;31.50;;;27.13;;
77581;SDS011;66726;52.388;9.986;2023-01-29T05:58:15;32.38;;;27.17;;
77581;SDS011;66726;52.388;9.986;2023-01-29T06:00:44;30.85;;;27.20;;
77581;SDS011;66726;52.388;9.986;2023-01-29T06:03:12;32.13;;;27.67;;
77581;SDS011;66726;52.388;9.986;2023-01-29T06:05:41;31.52;;;27.17;;
77581;SDS011;66726;52.388;9.986;2023-01-29T06:08:09;32.47;;;27.87;;
77581;SDS011;66726;52.388;9.986;2023-01-29T06:10:38;30.92;;;25.95;;
77581;SDS011;66726;52.388;9.986;2023-01-29T06:13:06;32.03;;;27.52;;
77581;SDS011;66726;52.388;9.986;2023-01-29T06:15:34;34.25;;;27.60;;
77581;SDS011;66726;52.388;9.986;2023-01-29T06:18:06;32.15;;;27.80;;
77581;SDS011;66726;52.388;9.986;2023-01-29T06:20:34;32.70;;;27.80;;
77581;SDS011;66726;52.388;9.986;2023-01-29T06:23:03;31.85;;;26.85;;
77581;SDS011;66726;52.388;9.986;2023-01-29T06:25:31;30.73;;;26.77;;
77581;SDS011;66726;52.388;9.986;2023-01-29T06:28:00;30.77;;;26.58;;
77581;SDS011;66726;52.388;9.986;2023-01-29T06:30:28;31.90;;;25.98;;
77581;SDS011;66726;52.388;9.986;2023-01-29T06:32:57;32.78;;;27.92;;
77581;SDS011;66726;52.388;9.986;2023-01-29T06:35:26;31.60;;;27.15;;
77581;SDS011;66726;52.388;9.986;2023-01-29T06:37:55;31.33;;;27.05;;
77581;SDS011;66726;52.388;9.986;2023-01-29T06:40:23;33.38;;;27.20;;
77581;SDS011;66726;52.388;9.986;2023-01-29T06:42:51;33.58;;;27.63;;
77581;SDS011;66726;52.388;9.986;2023-01-29T06:45:21;33.22;;;28.30;;
77581;SDS011;66726;52.388;9.986;2023-01-29T06:47:49;32.40;;;27.08;;
77581;SDS011;66726;52.388;9.986;2023-01-29T06:50:17;34.63;;;28.33;;
77581;SDS011;66726;52.388;9.986;2023-01-29T06:52:46;34.35;;;28.35;;
77581;SDS011;66726;52.388;9.986;2023-01-29T06:55:14;33.15;;;28.38;;
77581;SDS011;66726;52.388;9.986;2023-01-29T06:57:42;33.08;;;28.23;;
77581;SDS011;66726;52.388;9.986;2023-01-29T07:00:11;34.97;;;28.00;;
77581;SDS011;66726;52.388;9.986;2023-01-29T07:02:42;36.72;;;29.65;;
77581;SDS011;66726;52.388;9.986;2023-01-29T07:05:10;35.47;;;29.08;;
77581;SDS011;66726;52.388;9.986;2023-01-29T07:07:38;33.80;;;27.88;;
77581;SDS011;66726;52.388;9.986;2023-01-29T07:10:07;34.75;;;28.42;;
77581;SDS011;66726;52.388;9.986;2023-01-29T07:12:36;36.10;;;29.58;;
77581;SDS011;66726;52.388;9.986;2023-01-29T07:15:05;37.50;;;30.58;;
77581;SDS011;66726;52.388;9.986;2023-01-29T07:17:34;36.38;;;30.05;;
77581;SDS011;66726;52.388;9.986;2023-01-29T07:20:04;38.67;;;30.27;;
77581;SDS011;66726;52.388;9.986;2023-01-29T07:22:34;37.83;;;30.35;;
77581;SDS011;66726;52.388;9.986;2023-01-29T07:25:02;39.08;;;30.67;;
77581;SDS011;66726;52.388;9.986;2023-01-29T07:27:32;39.28;;;31.05;;
77581;SDS011;66726;52.388;9.986;2023-01-29T07:30:00;37.85;;;31.17;;
77581;SDS011;66726;52.388;9.986;2023-01-29T07:32:28;38.47;;;30.57;;
77581;SDS011;66726;52.388;9.986;2023-01-29T07:34:56;37.97;;;29.75;;
77581;SDS011;66726;52.388;9.986;2023-01-29T07:37:25;40.60;;;30.50;;
77581;SDS011;66726;52.388;9.986;2023-01-29T07:39:54;39.40;;;30.75;;
77581;SDS011;66726;52.388;9.986;2023-01-29T07:42:22;38.00;;;30.02;;
77581;SDS011;66726;52.388;9.986;2023-01-29T07:44:50;40.63;;;31.45;;
77581;SDS011;66726;52.388;9.986;2023-01-29T07:47:18;39.30;;;31.02;;
77581;SDS011;66726;52.388;9.986;2023-01-29T07:49:46;39.70;;;31.58;;
77581;SDS011;66726;52.388;9.986;2023-01-29T07:52:14;41.42;;;31.35;;
77581;SDS011;66726;52.388;9.986;2023-01-29T07:54:43;41.08;;;32.25;;
77581;SDS011;66726;52.388;9.986;2023-01-29T07:57:11;41.55;;;32.42;;
77581;SDS011;66726;52.388;9.986;2023-01-29T07:59:39;43.90;;;33.58;;
77581;SDS011;66726;52.388;9.986;2023-01-29T08:02:08;45.22;;;34.03;;
77581;SDS011;66726;52.388;9.986;2023-01-29T08:04:37;46.45;;;35.13;;
77581;SDS011;66726;52.388;9.986;2023-01-29T08:07:05;44.70;;;34.25;;
77581;SDS011;66726;52.388;9.986;2023-01-29T08:09:34;45.15;;;34.17;;
77581;SDS011;66726;52.388;9.986;2023-01-29T08:12:04;47.07;;;35.20;;
77581;SDS011;66726;52.388;9.986;2023-01-29T08:14:33;49.50;;;36.38;;
77581;SDS011;66726;52.388;9.986;2023-01-29T08:17:01;47.80;;;36.10;;
77581;SDS011;66726;52.388;9.986;2023-01-29T08:19:29;51.33;;;37.85;;
77581;SDS011;66726;52.388;9.986;2023-01-29T08:21:57;55.08;;;40.03;;
77581;SDS011;66726;52.388;9.986;2023-01-29T08:24:25;51.07;;;38.87;;
77581;SDS011;66726;52.388;9.986;2023-01-29T08:27:14;54.25;;;39.70;;
77581;SDS011;66726;52.388;9.986;2023-01-29T08:29:42;56.38;;;41.60;;
77581;SDS011;66726;52.388;9.986;2023-01-29T08:32:10;55.65;;;39.90;;
77581;SDS011;66726;52.388;9.986;2023-01-29T08:34:38;59.63;;;41.97;;
77581;SDS011;66726;52.388;9.986;2023-01-29T08:37:06;56.17;;;41.83;;
77581;SDS011;66726;52.388;9.986;2023-01-29T08:39:34;62.53;;;45.67;;
77581;SDS011;66726;52.388;9.986;2023-01-29T08:42:03;59.28;;;42.00;;
77581;SDS011;66726;52.388;9.986;2023-01-29T08:44:32;62.05;;;45.95;;
77581;SDS011;66726;52.388;9.986;2023-01-29T08:47:00;63.08;;;46.33;;
77581;SDS011;66726;52.388;9.986;2023-01-29T08:49:29;59.58;;;44.28;;
77581;SDS011;66726;52.388;9.986;2023-01-29T08:51:57;57.63;;;42.25;;
77581;SDS011;66726;52.388;9.986;2023-01-29T08:54:28;57.60;;;42.67;;
77581;SDS011;66726;52.388;9.986;2023-01-29T08:56:56;55.60;;;41.72;;
77581;SDS011;66726;52.388;9.986;2023-01-29T08:59:24;56.30;;;41.97;;
77581;SDS011;66726;52.388;9.986;2023-01-29T09:01:53;67.18;;;48.70;;
77581;SDS011;66726;52.388;9.986;2023-01-29T09:04:21;68.80;;;50.70;;
77581;SDS011;66726;52.388;9.986;2023-01-29T09:06:50;67.15;;;48.53;;
77581;SDS011;66726;52.388;9.986;2023-01-29T09:09:18;61.70;;;45.75;;
77581;SDS011;66726;52.388;9.986;2023-01-29T09:11:46;65.55;;;47.08;;
77581;SDS011;66726;52.388;9.986;2023-01-29T09:14:14;102.85;;;64.65;;
77581;SDS011;66726;52.388;9.986;2023-01-29T09:16:42;110.18;;;67.63;;
77581;SDS011;66726;52.388;9.986;2023-01-29T09:19:12;116.80;;;78.00;;
77581;SDS011;66726;52.388;9.986;2023-01-29T09:21:41;98.38;;;66.00;;
77581;SDS011;66726;52.388;9.986;2023-01-29T09:24:09;80.10;;;54.83;;
77581;SDS011;66726;52.388;9.986;2023-01-29T09:26:38;84.43;;;59.17;;
77581;SDS011;66726;52.388;9.986;2023-01-29T09:29:07;107.28;;;77.40;;
77581;SDS011;66726;52.388;9.986;2023-01-29T09:31:36;65.85;;;50.45;;
77581;SDS011;66726;52.388;9.986;2023-01-29T09:34:04;60.20;;;44.58;;
77581;SDS011;66726;52.388;9.986;2023-01-29T09:36:34;69.00;;;52.72;;
77581;SDS011;66726;52.388;9.986;2023-01-29T09:39:02;64.95;;;48.03;;
77581;SDS011;66726;52.388;9.986;2023-01-29T09:41:34;64.90;;;50.03;;
77581;SDS011;66726;52.388;9.986;2023-01-29T09:44:16;59.78;;;46.45;;
77581;SDS011;66726;52.388;9.986;2023-01-29T09:46:54;56.00;;;42.55;;
77581;SDS011;66726;52.388;9.986;2023-01-29T09:49:25;53.47;;;40.20;;
77581;SDS011;66726;52.388;9.986;2023-01-29T09:52:04;61.42;;;45.47;;
77581;SDS011;66726;52.388;9.986;2023-01-29T09:54:45;56.90;;;43.90;;
77581;SDS011;66726;52.388;9.986;2023-01-29T09:57:24;99.10;;;65.68;;
77581;SDS011;66726;52.388;9.986;2023-01-29T10:00:00;77.28;;;55.83;;
77581;SDS011;66726;52.388;9.986;2023-01-29T10:02:37;57.47;;;43.90;;
77581;SDS011;66726;52.388;9.986;2023-01-29T10:05:39;48.67;;;38.67;;
77581;SDS011;66726;52.388;9.986;2023-01-29T10:08:31;57.10;;;43.35;;
77581;SDS011;66726;52.388;9.986;2023-01-29T10:11:25;49.33;;;37.92;;
77581;SDS011;66726;52.388;9.986;2023-01-29T10:14:10;52.33;;;40.43;;
77581;SDS011;66726;52.388;9.986;2023-01-29T10:16:53;49.20;;;38.33;;
77581;SDS011;66726;52.388;9.986;2023-01-29T10:19:56;50.75;;;37.60;;
77581;SDS011;66726;52.388;9.986;2023-01-29T10:22:54;49.72;;;38.00;;
77581;SDS011;66726;52.388;9.986;2023-01-29T10:25:46;50.35;;;38.92;;
77581;SDS011;66726;52.388;9.986;2023-01-29T10:28:16;48.88;;;37.92;;
77581;SDS011;66726;52.388;9.986;2023-01-29T10:30:50;61.15;;;43.92;;
77581;SDS011;66726;52.388;9.986;2023-01-29T10:33:27;53.28;;;41.05;;
77581;SDS011;66726;52.388;9.986;2023-01-29T10:36:25;56.30;;;44.35;;
77581;SDS011;66726;52.388;9.986;2023-01-29T10:39:01;61.85;;;49.92;;
77581;SDS011;66726;52.388;9.986;2023-01-29T10:41:37;54.10;;;40.88;;
77581;SDS011;66726;52.388;9.986;2023-01-29T10:44:22;51.90;;;39.45;;
77581;SDS011;66726;52.388;9.986;2023-01-29T10:47:20;52.25;;;40.08;;
77581;SDS011;66726;52.388;9.986;2023-01-29T10:50:27;54.08;;;41.47;;
77581;SDS011;66726;52.388;9.986;2023-01-29T10:53:17;51.92;;;40.17;;
77581;SDS011;66726;52.388;9.986;2023-01-29T10:56:06;55.70;;;42.00;;
77581;SDS011;66726;52.388;9.986;2023-01-29T10:58:58;53.47;;;39.92;;
77581;SDS011;66726;52.388;9.986;2023-01-29T11:01:31;54.95;;;40.65;;
77581;SDS011;66726;52.388;9.986;2023-01-29T11:04:00;53.42;;;39.78;;
77581;SDS011;66726;52.388;9.986;2023-01-29T11:06:30;52.05;;;39.30;;
77581;SDS011;66726;52.388;9.986;2023-01-29T11:09:02;52.20;;;39.55;;
77581;SDS011;66726;52.388;9.986;2023-01-29T11:11:40;51.25;;;38.85;;
77581;SDS011;66726;52.388;9.986;2023-01-29T11:14:20;51.38;;;37.95;;
77581;SDS011;66726;52.388;9.986;2023-01-29T11:16:53;54.90;;;42.05;;
77581;SDS011;66726;52.388;9.986;2023-01-29T11:19:35;48.47;;;37.92;;
77581;SDS011;66726;52.388;9.986;2023-01-29T11:22:10;50.50;;;37.80;;
77581;SDS011;66726;52.388;9.986;2023-01-29T11:24:41;48.97;;;38.13;;
77581;SDS011;66726;52.388;9.986;2023-01-29T11:27:13;47.42;;;36.17;;
77581;SDS011;66726;52.388;9.986;2023-01-29T11:29:52;48.63;;;37.08;;
77581;SDS011;66726;52.388;9.986;2023-01-29T11:32:25;86.25;;;59.72;;
77581;SDS011;66726;52.388;9.986;2023-01-29T11:35:00;53.28;;;42.10;;
77581;SDS011;66726;52.388;9.986;2023-01-29T11:37:32;52.45;;;41.45;;
77581;SDS011;66726;52.388;9.986;2023-01-29T11:43:20;47.67;;;38.45;;
77581;SDS011;66726;52.388;9.986;2023-01-29T11:45:58;47.33;;;37.17;;
77581;SDS011;66726;52.388;9.986;2023-01-29T11:48:38;57.75;;;46.30;;
77581;SDS011;66726;52.388;9.986;2023-01-29T11:51:10;51.47;;;42.00;;
77581;SDS011;66726;52.388;9.986;2023-01-29T11:53:48;44.97;;;35.23;;
77581;SDS011;66726;52.388;9.986;2023-01-29T11:56:24;44.42;;;35.17;;
77581;SDS011;66726;52.388;9.986;2023-01-29T11:58:58;47.70;;;39.25;;
77581;SDS011;66726;52.388;9.986;2023-01-29T12:01:31;43.72;;;34.60;;
77581;SDS011;66726;52.388;9.986;2023-01-29T12:04:10;46.70;;;35.50;;
77581;SDS011;66726;52.388;9.986;2023-01-29T12:06:46;47.53;;;36.20;;
77581;SDS011;66726;52.388;9.986;2023-01-29T12:09:19;45.55;;;35.38;;
77581;SDS011;66726;52.388;9.986;2023-01-29T12:11:52;45.05;;;34.47;;
77581;SDS011;66726;52.388;9.986;2023-01-29T12:14:22;47.33;;;35.42;;
77581;SDS011;66726;52.388;9.986;2023-01-29T12:17:00;45.13;;;34.97;;
77581;SDS011;66726;52.388;9.986;2023-01-29T12:19:33;43.70;;;34.80;;
77581;SDS011;66726;52.388;9.986;2023-01-29T12:22:09;43.00;;;33.30;;
77581;SDS011;66726;52.388;9.986;2023-01-29T12:24:48;43.05;;;32.17;;
77581;SDS011;66726;52.388;9.986;2023-01-29T12:27:24;41.70;;;32.65;;
77581;SDS011;66726;52.388;9.986;2023-01-29T12:30:04;40.33;;;32.08;;
77581;SDS011;66726;52.388;9.986;2023-01-29T12:32:47;39.58;;;31.83;;
77581;SDS011;66726;52.388;9.986;2023-01-29T12:35:26;40.97;;;32.13;;
77581;SDS011;66726;52.388;9.986;2023-01-29T12:38:00;39.83;;;30.40;;
77581;SDS011;66726;52.388;9.986;2023-01-29T12:40:37;42.47;;;32.95;;
77581;SDS011;66726;52.388;9.986;2023-01-29T12:43:11;39.60;;;30.75;;
77581;SDS011;66726;52.388;9.986;2023-01-29T12:45:43;41.78;;;33.60;;
77581;SDS011;66726;52.388;9.986;2023-01-29T12:48:22;41.67;;;33.17;;
77581;SDS011;66726;52.388;9.986;2023-01-29T12:50:56;43.35;;;34.75;;
77581;SDS011;66726;52.388;9.986;2023-01-29T12:53:34;38.60;;;31.02;;
77581;SDS011;66726;52.388;9.986;2023-01-29T12:56:08;44.55;;;36.85;;
77581;SDS011;66726;52.388;9.986;2023-01-29T12:58:42;60.60;;;47.75;;
77581;SDS011;66726;52.388;9.986;2023-01-29T13:01:15;54.53;;;44.45;;
77581;SDS011;66726;52.388;9.986;2023-01-29T13:03:56;41.78;;;33.92;;
77581;SDS011;66726;52.388;9.986;2023-01-29T13:06:32;39.83;;;32.85;;
77581;SDS011;66726;52.388;9.986;2023-01-29T13:09:10;39.60;;;32.08;;
77581;SDS011;66726;52.388;9.986;2023-01-29T13:11:47;38.00;;;30.75;;
77581;SDS011;66726;52.388;9.986;2023-01-29T13:14:23;41.92;;;31.88;;
77581;SDS011;66726;52.388;9.986;2023-01-29T13:17:08;39.75;;;31.73;;
77581;SDS011;66726;52.388;9.986;2023-01-29T13:19:46;40.78;;;32.00;;
77581;SDS011;66726;52.388;9.986;2023-01-29T13:22:21;40.08;;;32.50;;
77581;SDS011;66726;52.388;9.986;2023-01-29T13:24:53;40.17;;;31.77;;
77581;SDS011;66726;52.388;9.986;2023-01-29T13:27:31;39.00;;;30.88;;
77581;SDS011;66726;52.388;9.986;2023-01-29T13:30:01;38.85;;;30.27;;
77581;SDS011;66726;52.388;9.986;2023-01-29T13:32:31;37.97;;;30.13;;
77581;SDS011;66726;52.388;9.986;2023-01-29T13:35:04;38.90;;;30.98;;
77581;SDS011;66726;52.388;9.986;2023-01-29T13:37:41;37.63;;;30.92;;
77581;SDS011;66726;52.388;9.986;2023-01-29T13:40:18;36.80;;;29.23;;
77581;SDS011;66726;52.388;9.986;2023-01-29T13:42:52;36.08;;;29.40;;
77581;SDS011;66726;52.388;9.986;2023-01-29T13:45:26;34.22;;;27.85;;
77581;SDS011;66726;52.388;9.986;2023-01-29T13:48:09;35.40;;;28.52;;
77581;SDS011;66726;52.388;9.986;2023-01-29T13:50:48;38.35;;;29.52;;
77581;SDS011;66726;52.388;9.986;2023-01-29T13:53:21;36.28;;;28.13;;
77581;SDS011;66726;52.388;9.986;2023-01-29T13:55:53;32.80;;;27.20;;
77581;SDS011;66726;52.388;9.986;2023-01-29T14:04:30;36.28;;;28.23;;
77581;SDS011;66726;52.388;9.986;2023-01-29T14:07:01;34.88;;;28.08;;
77581;SDS011;66726;52.388;9.986;2023-01-29T14:10:15;35.72;;;28.20;;
77581;SDS011;66726;52.388;9.986;2023-01-29T14:12:47;35.10;;;28.02;;
77581;SDS011;66726;52.388;9.986;2023-01-29T14:15:25;36.10;;;29.17;;
77581;SDS011;66726;52.388;9.986;2023-01-29T14:18:11;38.33;;;30.67;;
77581;SDS011;66726;52.388;9.986;2023-01-29T14:20:56;37.22;;;29.85;;
77581;SDS011;66726;52.388;9.986;2023-01-29T14:23:32;39.47;;;30.15;;
77581;SDS011;66726;52.388;9.986;2023-01-29T14:26:19;36.50;;;28.83;;
77581;SDS011;66726;52.388;9.986;2023-01-29T14:28:56;39.92;;;30.77;;
77581;SDS011;66726;52.388;9.986;2023-01-29T14:31:31;41.33;;;33.03;;
77581;SDS011;66726;52.388;9.986;2023-01-29T14:34:12;41.03;;;32.28;;
77581;SDS011;66726;52.388;9.986;2023-01-29T14:36:49;37.97;;;30.67;;
77581;SDS011;66726;52.388;9.986;2023-01-29T14:39:34;39.17;;;29.58;;
77581;SDS011;66726;52.388;9.986;2023-01-29T14:42:14;36.90;;;29.63;;
77581;SDS011;66726;52.388;9.986;2023-01-29T14:45:00;38.10;;;30.80;;
77581;SDS011;66726;52.388;9.986;2023-01-29T14:47:52;38.13;;;30.85;;
77581;SDS011;66726;52.388;9.986;2023-01-29T14:50:38;38.03;;;30.45;;
77581;SDS011;66726;52.388;9.986;2023-01-29T14:53:15;37.92;;;30.40;;
77581;SDS011;66726;52.388;9.986;2023-01-29T14:55:57;44.92;;;35.20;;
77581;SDS011;66726;52.388;9.986;2023-01-29T14:58:34;39.83;;;32.70;;
77581;SDS011;66726;52.388;9.986;2023-01-29T15:01:20;39.08;;;31.23;;
77581;SDS011;66726;52.388;9.986;2023-01-29T15:03:57;39.35;;;31.20;;
77581;SDS011;66726;52.388;9.986;2023-01-29T15:06:31;37.30;;;30.77;;
77581;SDS011;66726;52.388;9.986;2023-01-29T15:09:10;43.05;;;34.47;;
77581;SDS011;66726;52.388;9.986;2023-01-29T15:11:47;38.88;;;30.48;;
77581;SDS011;66726;52.388;9.986;2023-01-29T15:14:27;36.75;;;29.85;;
77581;SDS011;66726;52.388;9.986;2023-01-29T15:17:12;36.70;;;28.88;;